Terminal Aerodrome Forecast
Issued by NWS Cleveland, OH

Home | Current Version | Previous Version | Graphics & Text | Print | Product List | Glossary On
Versions: 1 2 3 4 5 6 7 8 9 10 11 12 13 14 15 16 17 18 19
000
FTUS41 KCLE 241600 AAB
TAFYNG
TAF AMD
KYNG 241603Z 2416/2512 15010KT 6SM BR OVC004
      TEMPO 2416/2419 2SM -SHRA BR SCT004 OVC012
     FM241900 18012G22KT P6SM OVC012
     FM250000 19018G28KT 4SM -SHRA OVC010
     FM250300 20025G40KT P6SM OVC015
     FM251000 24025G35KT 3SM -SHSN OVC018=

USA.gov is the U.S. government's official web portal to all federal, state and local government web resources and services.